Terminal Aerodrome Forecast
Issued by NWS Nashville, TN

Home | Current Version | Previous Version | Text Only | Print | Product List | Glossary On
Versions: 1 2 3 4 5 6 7 8 9 10 11 12 13 14 15 16 17 18 19 20 21 22 23 24 25 26 27 28 29 30 31
620
FTUS44 KOHX 101135 AAB
TAFCSV
TAF AMD
KCSV 101135Z 1012/1112 29009KT P6SM SCT023 BKN035
      TEMPO 1012/1015 2SM -SN BKN023 OVC035
     FM101500 29008G17KT P6SM -SN OVC035
     FM110000 28003KT P6SM OVC060
     FM110500 25003KT P6SM OVC020=

USA.gov is the U.S. government's official web portal to all federal, state and local government web resources and services.